Time;durP1;ratioP1;P1;durP2;ratioP2;P2;SDS_P1;SDS_P2;PMS_P1;PMS_P2;Temp;Humidity;BMP_temperature;BMP_pressure;BME280_temperature;BME280_humidity;BME280_pressure;Samples;Min_cycle;Max_cycle;Signal;HPM_P1;HPM_P2
2022/04/10 00:15:19;;;;;;;;;;;;;;;3.36;71.38;97974.56;4942178;23;19969;-93
2022/04/10 00:17:47;;;;;;;;;;;;;;;3.67;70.16;97972.75;4906053;29;19955;-93
2022/04/10 00:20:16;;;;;;;;;;;;;;;3.93;68.78;97965.56;4899488;29;20450;-94
2022/04/10 00:22:44;;;;;;;;;;;;;;;4.18;67.60;97962.09;4888308;29;19927;-93
2022/04/10 00:25:14;;;;;;;;;;;;;;;4.17;66.85;97955.91;4882151;29;19928;-93
2022/04/10 00:27:45;;;;;;;;;;;;;;;3.75;69.00;97963.38;4875828;29;19928;-93
2022/04/10 00:30:14;;;;;;;;;;;;;;;3.65;70.14;97964.16;4871997;29;19965;-93
2022/04/10 00:32:44;;;;;;;;;;;;;;;3.55;69.62;97964.13;4879240;29;19927;-92
2022/04/10 00:35:12;;;;;;;;;;;;;;;3.58;69.21;97959.03;4886517;29;19931;-94
2022/04/10 00:37:42;;;;;;;;;;;;;;;3.62;69.27;97962.00;4897086;29;19953;-94
2022/04/10 00:40:10;;;;;;;;;;;;;;;3.47;68.92;97968.16;4889482;29;19934;-91
2022/04/10 00:42:39;;;;;;;;;;;;;;;3.61;68.96;97973.81;4892903;29;19932;-94
2022/04/10 00:45:09;;;;;;;;;;;;;;;3.48;69.32;97969.75;4871420;29;19928;-93
2022/04/10 00:47:37;;;;;;;;;;;;;;;3.36;69.22;97966.50;4884072;29;19931;-92
2022/04/10 00:50:08;;;;;;;;;;;;;;;3.42;69.87;97966.25;4904814;29;20017;-93
2022/04/10 00:52:36;;;;;;;;;;;;;;;3.39;69.67;97969.44;4900701;29;19927;-94
2022/04/10 00:55:05;;;;;;;;;;;;;;;3.36;69.92;97967.31;4874834;29;19927;-93
2022/04/10 00:57:33;;;;;;;;;;;;;;;3.63;68.84;97961.75;4884749;29;19927;-94
2022/04/10 01:00:01;;;;;;;;;;;;;;;3.79;67.87;97953.72;4890688;29;19927;-94
2022/04/10 01:02:29;;;;;;;;;;;;;;;3.56;69.10;97947.75;4889752;29;19979;-94
2022/04/10 01:04:58;;;;;;;;;;;;;;;3.51;69.65;97950.41;4890606;29;20109;-94
2022/04/10 01:07:29;;;;;;;;;;;;;;;3.60;69.09;97948.03;4874643;29;19933;-94
2022/04/10 01:09:57;;;;;;;;;;;;;;;3.82;68.09;97945.13;4888717;29;19931;-94
2022/04/10 01:12:51;;;;;;;;;;;;;;;3.58;68.17;97955.56;4893619;29;19953;-94
2022/04/10 01:15:23;;;;;;;;;;;;;;;3.84;67.68;97956.41;4884924;29;19927;-93
2022/04/10 01:17:52;;;;;;;;;;;;;;;3.74;67.93;97956.41;4885407;29;19927;-94
2022/04/10 01:20:21;;;;;;;;;;;;;;;3.99;67.27;97964.47;4874296;29;19978;-94
2022/04/10 01:22:55;;;;;;;;;;;;;;;4.01;66.96;97956.16;4886661;29;19927;-93
2022/04/10 01:25:24;;;;;;;;;;;;;;;4.30;65.99;97951.06;4883256;29;19927;-94
2022/04/10 01:27:56;;;;;;;;;;;;;;;3.95;67.46;97949.97;4872420;29;19927;-94
2022/04/10 01:30:27;;;;;;;;;;;;;;;3.85;67.98;97963.41;4894923;29;19927;-94
2022/04/10 01:32:57;;;;;;;;;;;;;;;3.85;68.46;97958.03;4874663;29;19927;-95
2022/04/10 01:35:26;;;;;;;;;;;;;;;3.93;67.66;97960.97;4887683;29;20310;-95
2022/04/10 01:37:56;;;;;;;;;;;;;;;3.56;68.21;97969.22;4891661;29;19927;-94
2022/04/10 01:40:29;;;;;;;;;;;;;;;3.58;68.24;97967.09;4893917;29;19927;-93
2022/04/10 01:42:57;;;;;;;;;;;;;;;3.63;67.64;97967.13;4887244;29;19927;-94
2022/04/10 01:45:26;;;;;;;;;;;;;;;3.90;65.92;97955.34;4887521;29;19935;-94
2022/04/10 06:39:16;;;;;;;;;;;;;;;2.93;63.36;98238.66;5464923;23;19925;-75
2022/04/10 07:49:47;;;;;;;;;;;;;;;4.16;55.00;98260.84;5491888;23;20267;-73
2022/04/10 07:53:15;;;;;;;;;;;;;;;4.24;55.99;98269.47;4906732;29;19927;-76
2022/04/10 07:56:10;;;;;;;;;;;;;;;4.22;55.32;98255.50;4928245;29;19935;-76
2022/04/10 07:58:39;;;;;;;;;;;;;;;4.54;54.61;98264.25;4909655;29;19927;-73
2022/04/10 08:20:58;;;;;;;;;;;;;;;5.14;50.33;98287.00;4904167;29;19975;-73
2022/04/10 08:35:29;;;;;;;;;;;;;;;5.17;50.95;98296.47;4819308;29;19964;-76
2022/04/10 08:37:57;;;;;;;;;;;;;;;5.21;51.39;98303.72;4857526;29;19928;-71
2022/04/10 08:40:25;;;;;;;;;;;;;;;5.38;50.14;98302.66;4850714;29;19935;-73
2022/04/10 08:42:55;;;;;;;;;;;;;;;5.52;48.70;98303.75;4842698;29;19955;-74
2022/04/10 08:45:27;;;;;;;;;;;;;;;5.35;50.43;98304.03;4832590;29;19995;-73
2022/04/10 08:47:56;;;;;;;;;;;;;;;5.58;49.11;98308.06;4843657;29;19957;-73
2022/04/10 08:50:26;;;;;;;;;;;;;;;6.41;47.14;98306.94;4855430;29;20078;-73
2022/04/10 08:52:57;;;;;;;;;;;;;;;6.33;48.55;98307.50;4851784;29;20029;-71
2022/04/10 08:58:23;;;;;;;;;;;;;;;5.98;47.46;98306.50;4900646;29;20029;-76
2022/04/10 09:21:40;;;;;;;;;;;;;;;5.91;47.86;98322.09;4894085;29;20658;-72
2022/04/10 09:24:09;;;;;;;;;;;;;;;5.93;47.93;98328.88;4881805;29;19931;-73
2022/04/10 09:26:46;;;;;;;;;;;;;;;6.25;48.18;98322.38;4896550;29;19928;-74
2022/04/10 09:29:19;;;;;;;;;;;;;;;5.95;47.78;98323.19;4896175;29;20387;-78
2022/04/10 09:31:49;;;;;;;;;;;;;;;6.17;48.08;98315.63;4869964;29;20487;-73
2022/04/10 09:34:20;;;;;;;;;;;;;;;5.69;48.05;98320.47;4880535;29;19936;-76
2022/04/10 09:37:12;;;;;;;;;;;;;;;5.84;47.94;98321.56;4913078;29;19957;-71
2022/04/10 09:39:41;;;;;;;;;;;;;;;5.82;47.72;98324.53;4883981;29;19939;-74
2022/04/10 09:42:10;;;;;;;;;;;;;;;5.58;47.15;98326.13;4893781;29;19927;-74
2022/04/10 09:44:58;;;;;;;;;;;;;;;5.79;47.50;98317.78;4882118;29;20351;-75
2022/04/10 09:47:29;;;;;;;;;;;;;;;5.94;47.53;98313.50;4923259;29;19927;-76
2022/04/10 09:50:05;;;;;;;;;;;;;;;5.81;45.90;98319.41;4887130;29;19942;-76
2022/04/10 09:52:35;;;;;;;;;;;;;;;5.87;45.49;98311.06;4908883;29;19935;-74
2022/04/10 09:58:26;;;;;;;;;;;;;;;6.33;44.02;98307.50;5065974;23;19911;-78
2022/04/10 10:16:28;;;;;;;;;;;;;;;5.91;46.38;98304.06;4991153;23;19932;-77
2022/04/10 10:18:57;;;;;;;;;;;;;;;6.09;48.09;98302.69;4898346;29;20022;-73
2022/04/10 10:21:36;;;;;;;;;;;;;;;5.93;47.03;98309.19;4890009;29;19931;-74
2022/04/10 10:24:05;;;;;;;;;;;;;;;6.08;46.68;98311.06;4881719;29;19933;-74
2022/04/10 10:26:38;;;;;;;;;;;;;;;6.19;44.82;98309.97;4884848;29;19931;-74
2022/04/10 10:29:15;;;;;;;;;;;;;;;6.33;44.33;98313.69;4872136;29;19965;-74
2022/04/10 10:35:08;;;;;;;;;;;;;;;6.65;43.68;98304.41;5354365;23;20018;-74
2022/04/10 11:32:29;;;;;;;;;;;;;;;7.18;43.01;98312.81;5008568;23;19923;-86
2022/04/10 11:35:25;;;;;;;;;;;;;;;7.41;42.30;98305.94;4886590;29;20006;-86
2022/04/10 11:37:54;;;;;;;;;;;;;;;7.22;42.26;98313.88;4880807;29;19928;-84
2022/04/10 11:40:23;;;;;;;;;;;;;;;7.47;42.41;98308.31;4894076;29;19927;-82
2022/04/10 11:42:53;;;;;;;;;;;;;;;7.48;41.60;98301.00;4889721;29;19927;-78
2022/04/10 11:45:22;;;;;;;;;;;;;;;7.49;42.18;98308.84;4886165;29;19928;-87
2022/04/10 11:47:56;;;;;;;;;;;;;;;7.10;42.42;98316.91;4874977;29;19927;-77
2022/04/10 11:50:26;;;;;;;;;;;;;;;7.40;41.52;98299.69;4889408;29;19928;-80
2022/04/10 11:53:00;;;;;;;;;;;;;;;7.98;40.68;98298.97;4884877;29;19928;-82
2022/04/10 11:58:21;;;;;;;;;;;;;;;8.05;40.75;98294.06;4884737;29;19942;-76
2022/04/10 12:00:50;;;;;;;;;;;;;;;7.73;39.37;98294.59;4890744;29;19927;-73
2022/04/10 12:03:19;;;;;;;;;;;;;;;7.51;40.01;98297.72;4879196;29;19931;-73
2022/04/10 12:05:48;;;;;;;;;;;;;;;7.29;40.44;98304.34;4877732;29;19931;-72
2022/04/10 12:08:16;;;;;;;;;;;;;;;7.20;41.03;98295.25;4892184;29;19928;-73
2022/04/10 12:10:51;;;;;;;;;;;;;;;7.31;40.75;98298.69;4875123;29;20405;-73
2022/04/10 12:13:20;;;;;;;;;;;;;;;7.29;41.28;98293.53;4894842;29;20026;-72
2022/04/10 12:15:58;;;;;;;;;;;;;;;7.24;41.06;98293.59;4857722;29;20397;-72
2022/04/10 12:18:26;;;;;;;;;;;;;;;7.03;42.04;98295.63;4877497;29;19951;-78
2022/04/10 12:21:01;;;;;;;;;;;;;;;7.27;42.04;98292.22;4863255;29;19991;-82
2022/04/10 12:23:29;;;;;;;;;;;;;;;7.53;42.68;98298.28;4862982;29;20324;-79
2022/04/10 12:25:58;;;;;;;;;;;;;;;7.12;42.59;98293.13;4875731;29;19932;-80
2022/04/10 12:28:26;;;;;;;;;;;;;;;7.03;42.82;98289.38;4890006;29;19944;-79
2022/04/10 12:30:54;;;;;;;;;;;;;;;7.10;43.35;98300.72;4874945;29;19928;-80
2022/04/10 12:33:23;;;;;;;;;;;;;;;7.23;42.94;98300.06;4887922;29;20394;-83
2022/04/10 12:35:51;;;;;;;;;;;;;;;7.39;43.15;98291.88;4894397;29;20461;-76
2022/04/10 12:38:20;;;;;;;;;;;;;;;7.30;42.94;98299.78;4878354;29;19928;-74
2022/04/10 12:40:49;;;;;;;;;;;;;;;7.16;43.64;98294.19;4874202;29;19927;-75
2022/04/10 12:43:17;;;;;;;;;;;;;;;7.17;43.15;98295.00;4853914;29;20000;-76
2022/04/10 12:45:45;;;;;;;;;;;;;;;7.20;43.26;98297.16;4881695;29;19974;-76
2022/04/10 12:48:20;;;;;;;;;;;;;;;6.96;43.99;98291.59;4876062;29;20363;-76
2022/04/10 12:50:51;;;;;;;;;;;;;;;7.13;44.46;98289.31;4861348;29;19935;-79
2022/04/10 12:53:23;;;;;;;;;;;;;;;6.84;44.51;98286.53;4871065;29;20014;-74
2022/04/10 12:55:51;;;;;;;;;;;;;;;7.05;45.32;98287.22;4871296;29;19970;-82
2022/04/10 12:58:21;;;;;;;;;;;;;;;6.78;44.88;98291.16;4891728;29;19935;-85
2022/04/10 13:00:53;;;;;;;;;;;;;;;6.76;44.89;98296.00;4883064;29;20071;-85
2022/04/10 13:03:22;;;;;;;;;;;;;;;6.90;45.58;98295.41;4874933;29;19932;-85
2022/04/10 13:05:57;;;;;;;;;;;;;;;6.86;45.27;98291.63;4880168;29;19950;-85
2022/04/10 13:08:27;;;;;;;;;;;;;;;6.89;45.11;98291.91;4888903;29;19959;-85
2022/04/10 13:10:56;;;;;;;;;;;;;;;6.73;45.67;98301.16;4873943;29;19928;-86
2022/04/10 13:13:57;;;;;;;;;;;;;;;6.90;45.17;98295.41;4884846;29;19935;-85
2022/04/10 13:16:29;;;;;;;;;;;;;;;7.10;45.11;98298.00;4863503;29;20027;-86
2022/04/10 13:19:00;;;;;;;;;;;;;;;6.76;45.56;98293.28;4865817;29;19955;-85
2022/04/10 13:25:11;;;;;;;;;;;;;;;7.03;45.83;98290.22;4882875;29;20015;-86
2022/04/10 13:27:39;;;;;;;;;;;;;;;7.16;46.73;98299.59;4887057;29;19928;-86
2022/04/10 13:30:07;;;;;;;;;;;;;;;7.15;46.97;98292.56;4885664;29;19931;-86
2022/04/10 13:32:35;;;;;;;;;;;;;;;6.98;46.62;98292.16;4884779;29;19985;-86
2022/04/10 13:35:05;;;;;;;;;;;;;;;7.06;46.81;98294.25;4870578;29;19939;-87
2022/04/10 13:37:33;;;;;;;;;;;;;;;7.29;46.35;98290.84;4879166;29;20052;-86
2022/04/10 13:40:05;;;;;;;;;;;;;;;7.41;45.73;98289.72;4886832;29;20021;-85
2022/04/10 13:42:38;;;;;;;;;;;;;;;7.30;45.77;98286.28;4886301;29;20447;-86
2022/04/10 13:45:07;;;;;;;;;;;;;;;7.23;46.25;98283.06;4887793;29;19974;-87
2022/04/10 13:47:35;;;;;;;;;;;;;;;7.16;46.59;98277.16;4870244;29;19936;-87
2022/04/10 13:50:03;;;;;;;;;;;;;;;6.97;45.73;98277.81;4873406;29;19928;-87
2022/04/10 13:52:31;;;;;;;;;;;;;;;7.06;46.14;98276.13;4882206;29;19927;-85
2022/04/10 13:54:59;;;;;;;;;;;;;;;7.00;46.08;98284.56;4881573;29;19928;-85
2022/04/10 13:57:27;;;;;;;;;;;;;;;7.15;45.70;98279.06;4880872;29;19935;-85
2022/04/10 13:59:57;;;;;;;;;;;;;;;7.18;45.59;98281.19;4879685;29;19931;-87
2022/04/10 14:02:26;;;;;;;;;;;;;;;7.56;46.07;98270.66;4881227;29;19928;-87
2022/04/10 14:04:54;;;;;;;;;;;;;;;7.58;45.13;98269.28;4853866;29;19936;-87
2022/04/10 14:07:22;;;;;;;;;;;;;;;7.56;45.30;98273.34;4884057;29;19940;-87
2022/04/10 14:09:50;;;;;;;;;;;;;;;7.42;45.91;98270.50;4884884;29;19990;-87
2022/04/10 14:15:12;;;;;;;;;;;;;;;7.37;45.64;98267.03;4882313;29;20048;-87
2022/04/10 14:17:40;;;;;;;;;;;;;;;7.33;45.73;98266.78;4882218;29;19928;-86
2022/04/10 14:20:09;;;;;;;;;;;;;;;7.54;45.17;98272.84;4883461;29;20024;-87
2022/04/10 14:22:37;;;;;;;;;;;;;;;7.90;44.71;98259.03;4883865;29;19972;-87
2022/04/10 14:25:06;;;;;;;;;;;;;;;7.54;44.02;98265.53;4882166;29;19932;-87
2022/04/10 14:27:34;;;;;;;;;;;;;;;7.58;44.83;98265.78;4869589;29;19927;-86
2022/04/10 14:30:03;;;;;;;;;;;;;;;7.51;44.38;98268.00;4862596;29;19938;-87
2022/04/10 14:32:32;;;;;;;;;;;;;;;7.47;43.74;98278.56;4886948;29;19974;-88
2022/04/10 14:35:00;;;;;;;;;;;;;;;7.37;44.67;98269.75;4876885;29;19980;-88
2022/04/10 14:37:28;;;;;;;;;;;;;;;7.34;43.84;98274.59;4865249;29;19977;-87
2022/04/10 14:40:22;;;;;;;;;;;;;;;7.46;44.26;98286.97;4868305;29;19982;-87
2022/04/10 14:42:50;;;;;;;;;;;;;;;7.54;44.28;98289.06;4859417;29;19928;-86
2022/04/10 14:45:19;;;;;;;;;;;;;;;7.36;44.13;98271.63;4876556;29;19979;-87
2022/04/10 14:47:48;;;;;;;;;;;;;;;7.32;43.63;98271.38;4887610;29;19936;-86
2022/04/10 14:50:17;;;;;;;;;;;;;;;7.38;43.69;98269.44;4878039;29;19933;-87
2022/04/10 14:52:45;;;;;;;;;;;;;;;7.71;43.73;98267.81;4881733;29;19928;-84
2022/04/10 14:55:12;;;;;;;;;;;;;;;7.84;42.98;98261.78;4882456;29;20439;-86
2022/04/10 14:57:41;;;;;;;;;;;;;;;8.05;43.18;98261.59;4881428;29;20113;-89
2022/04/10 15:00:10;;;;;;;;;;;;;;;7.79;42.78;98272.63;4883392;29;19932;-85
2022/04/10 15:02:38;;;;;;;;;;;;;;;7.54;42.80;98264.72;4876681;29;19928;-82
2022/04/10 15:05:09;;;;;;;;;;;;;;;7.58;42.64;98268.50;4847897;29;19984;-84
2022/04/10 15:07:37;;;;;;;;;;;;;;;7.71;41.74;98267.03;4885700;29;20302;-87
2022/04/10 15:10:05;;;;;;;;;;;;;;;7.55;41.96;98266.34;4881112;29;19960;-87
2022/04/10 15:12:33;;;;;;;;;;;;;;;7.48;41.73;98273.97;4874253;29;19928;-87
2022/04/10 15:15:01;;;;;;;;;;;;;;;7.41;42.33;98273.50;4884814;29;19928;-78
2022/04/10 15:17:29;;;;;;;;;;;;;;;7.41;42.10;98270.78;4849282;29;19934;-88
2022/04/10 15:19:57;;;;;;;;;;;;;;;7.39;42.07;98270.25;4882456;29;20281;-79
2022/04/10 15:22:30;;;;;;;;;;;;;;;7.30;43.92;98268.16;4877839;29;20010;-79
2022/04/10 15:24:58;;;;;;;;;;;;;;;7.26;43.84;98277.91;4877035;29;20003;-78
2022/04/10 15:27:26;;;;;;;;;;;;;;;7.25;44.46;98280.91;4876891;29;19934;-76
2022/04/10 15:32:47;;;;;;;;;;;;;;;7.84;43.73;98279.91;4895297;29;19928;-77
2022/04/10 15:35:17;;;;;;;;;;;;;;;7.96;42.25;98269.50;4874071;29;20302;-88
2022/04/10 15:37:47;;;;;;;;;;;;;;;8.10;42.68;98265.03;4893302;29;19942;-82
2022/04/10 15:40:15;;;;;;;;;;;;;;;8.01;43.26;98265.94;4855566;29;20317;-86
2022/04/10 15:42:43;;;;;;;;;;;;;;;7.76;43.84;98273.19;4895082;29;20438;-79
2022/04/10 15:45:12;;;;;;;;;;;;;;;7.74;43.63;98271.88;4895899;29;20478;-76
2022/04/10 15:47:41;;;;;;;;;;;;;;;7.73;44.37;98276.47;4891236;29;19927;-75
2022/04/10 15:50:09;;;;;;;;;;;;;;;7.91;44.24;98264.13;4879998;29;19934;-77
2022/04/10 15:52:41;;;;;;;;;;;;;;;8.09;43.29;98273.44;4874099;29;19932;-78
2022/04/10 15:55:11;;;;;;;;;;;;;;;7.93;42.30;98270.06;4877455;29;19927;-77
2022/04/10 15:57:40;;;;;;;;;;;;;;;7.79;42.77;98269.13;4881103;29;20314;-79
2022/04/10 16:00:13;;;;;;;;;;;;;;;7.56;43.04;98266.09;4881670;29;19956;-72
2022/04/10 16:02:44;;;;;;;;;;;;;;;7.45;42.75;98269.13;4890631;29;19927;-74
2022/04/10 16:05:13;;;;;;;;;;;;;;;7.58;43.06;98260.38;4866536;29;19967;-87
2022/04/10 16:07:41;;;;;;;;;;;;;;;7.50;42.74;98258.28;4880676;29;19928;-89
2022/04/10 16:10:14;;;;;;;;;;;;;;;7.49;42.87;98262.06;4881458;29;19927;-89
2022/04/10 16:12:42;;;;;;;;;;;;;;;7.32;42.71;98265.97;4878127;29;19939;-89
2022/04/10 16:15:12;;;;;;;;;;;;;;;7.32;42.84;98271.38;4880058;29;19932;-77
2022/04/10 16:17:41;;;;;;;;;;;;;;;7.40;42.84;98269.16;4890324;29;20328;-92
2022/04/10 16:20:10;;;;;;;;;;;;;;;7.32;42.74;98263.28;4884790;29;20038;-87
2022/04/10 16:22:40;;;;;;;;;;;;;;;7.35;42.13;98265.44;4895650;29;20390;-92
2022/04/10 16:25:09;;;;;;;;;;;;;;;7.48;43.14;98265.88;4878762;29;19942;-75
2022/04/10 16:30:24;;;;;;;;;;;;;;;7.42;42.45;98264.28;4887737;29;19932;-79
2022/04/10 16:32:53;;;;;;;;;;;;;;;7.40;43.12;98261.84;4889112;29;19935;-77
2022/04/10 16:35:22;;;;;;;;;;;;;;;7.33;42.49;98269.47;4891258;29;19934;-80
2022/04/10 16:37:51;;;;;;;;;;;;;;;7.34;43.48;98271.91;4880150;29;19927;-78
2022/04/10 16:40:20;;;;;;;;;;;;;;;7.44;43.25;98267.50;4891943;29;19928;-78
2022/04/10 16:42:49;;;;;;;;;;;;;;;7.59;43.76;98273.59;4892687;29;20383;-80
2022/04/10 16:45:18;;;;;;;;;;;;;;;7.56;43.50;98282.31;4873271;29;19928;-78
2022/04/10 16:50:39;;;;;;;;;;;;;;;7.45;43.68;98274.53;4879118;29;19928;-76
2022/04/10 16:53:11;;;;;;;;;;;;;;;7.50;44.55;98283.41;4887868;29;19932;-79
2022/04/10 16:55:40;;;;;;;;;;;;;;;7.37;44.99;98281.34;4889817;29;20014;-79
2022/04/10 16:58:12;;;;;;;;;;;;;;;7.33;45.27;98273.00;4876502;29;20022;-77
2022/04/10 17:00:40;;;;;;;;;;;;;;;7.20;45.66;98278.22;4879366;29;19934;-82
2022/04/10 17:03:12;;;;;;;;;;;;;;;7.07;45.74;98274.25;4890265;29;20343;-79
2022/04/10 17:05:40;;;;;;;;;;;;;;;7.08;45.66;98275.84;4892172;29;20336;-80
2022/04/10 17:08:09;;;;;;;;;;;;;;;7.27;45.96;98284.13;4892838;29;19936;-80
2022/04/10 17:10:41;;;;;;;;;;;;;;;7.12;45.27;98271.50;4858782;29;19928;-80
2022/04/10 17:13:11;;;;;;;;;;;;;;;7.12;45.82;98281.50;4881085;29;19936;-80
2022/04/10 17:15:39;;;;;;;;;;;;;;;7.14;45.93;98277.47;4877698;29;20027;-80
2022/04/10 17:18:09;;;;;;;;;;;;;;;7.01;45.56;98291.56;4895655;29;20031;-88
2022/04/10 17:20:42;;;;;;;;;;;;;;;6.96;45.04;98286.19;4899857;29;19927;-82
2022/04/10 17:23:10;;;;;;;;;;;;;;;6.98;45.54;98286.75;4865388;29;19935;-85
2022/04/10 17:25:39;;;;;;;;;;;;;;;6.86;45.05;98286.25;4892220;29;20014;-75
2022/04/10 17:28:07;;;;;;;;;;;;;;;6.90;45.50;98284.59;4888690;29;20438;-75
2022/04/10 17:30:38;;;;;;;;;;;;;;;7.03;45.65;98286.69;4891696;29;19979;-75
2022/04/10 17:33:07;;;;;;;;;;;;;;;6.89;45.65;98285.69;4881285;29;19934;-75
2022/04/10 17:35:35;;;;;;;;;;;;;;;6.83;46.28;98287.63;4894219;29;19970;-78
2022/04/10 17:38:03;;;;;;;;;;;;;;;6.73;46.35;98288.47;4888200;29;19935;-75
2022/04/10 17:40:32;;;;;;;;;;;;;;;6.66;46.87;98289.84;4861380;29;19928;-79
2022/04/10 17:43:00;;;;;;;;;;;;;;;6.63;46.61;98293.09;4870210;29;20041;-75
2022/04/10 17:45:31;;;;;;;;;;;;;;;6.65;46.59;98293.63;4883160;29;19928;-76
2022/04/10 17:48:00;;;;;;;;;;;;;;;6.65;47.22;98297.13;4888181;29;20034;-78
2022/04/10 17:50:28;;;;;;;;;;;;;;;6.56;47.32;98296.91;4887379;29;19932;-81
2022/04/10 17:53:00;;;;;;;;;;;;;;;6.61;47.33;98293.38;4888579;29;19928;-93
2022/04/10 17:55:54;;;;;;;;;;;;;;;6.53;47.39;98293.94;4874325;29;19951;-92
2022/04/10 17:58:22;;;;;;;;;;;;;;;6.53;47.58;98299.34;4878073;29;19928;-91
2022/04/10 18:00:50;;;;;;;;;;;;;;;6.48;47.33;98302.06;4885243;29;19935;-91
2022/04/10 18:03:19;;;;;;;;;;;;;;;6.50;47.53;98305.31;4873713;29;19928;-87
2022/04/10 18:05:47;;;;;;;;;;;;;;;6.45;47.42;98310.72;4880226;29;19939;-86
2022/04/10 18:08:15;;;;;;;;;;;;;;;6.47;47.50;98316.63;4876627;29;19931;-88
2022/04/10 18:10:43;;;;;;;;;;;;;;;6.44;48.08;98319.88;4897432;29;19928;-91
2022/04/10 18:13:18;;;;;;;;;;;;;;;6.42;48.42;98322.03;4876628;29;19966;-91
2022/04/10 18:15:46;;;;;;;;;;;;;;;6.43;47.57;98324.47;4874705;29;19931;-93
2022/04/10 18:18:14;;;;;;;;;;;;;;;6.42;48.21;98328.25;4883191;29;19931;-90
2022/04/10 18:20:43;;;;;;;;;;;;;;;6.39;47.89;98322.59;4884024;29;19953;-93
2022/04/10 18:23:12;;;;;;;;;;;;;;;6.38;48.52;98326.38;4887379;29;19932;-90
2022/04/10 18:25:40;;;;;;;;;;;;;;;6.34;48.77;98330.69;4880887;29;19927;-90
2022/04/10 18:28:08;;;;;;;;;;;;;;;6.30;48.38;98331.25;4873222;29;19927;-87
2022/04/10 18:30:37;;;;;;;;;;;;;;;6.25;48.39;98339.34;4895365;29;19928;-88
2022/04/10 18:33:09;;;;;;;;;;;;;;;6.22;48.39;98337.19;4864046;29;19931;-87
2022/04/10 18:35:37;;;;;;;;;;;;;;;6.19;49.64;98340.44;4889192;29;20051;-92
2022/04/10 18:38:07;;;;;;;;;;;;;;;6.23;49.00;98346.09;4876682;29;19935;-92
2022/04/10 18:40:36;;;;;;;;;;;;;;;6.13;49.34;98346.94;4869817;29;20395;-92
2022/04/10 18:43:06;;;;;;;;;;;;;;;6.09;49.63;98345.84;4900823;29;19936;-91
2022/04/10 18:45:36;;;;;;;;;;;;;;;6.05;50.03;98350.16;4887656;29;19934;-90
2022/04/10 18:48:06;;;;;;;;;;;;;;;6.02;49.38;98356.13;4870684;29;20179;-91
2022/04/10 18:50:35;;;;;;;;;;;;;;;6.03;49.95;98355.03;4880523;29;19979;-89
2022/04/10 18:56:02;;;;;;;;;;;;;;;6.35;49.75;98359.31;4882622;29;19928;-88
2022/04/10 18:58:31;;;;;;;;;;;;;;;6.27;49.81;98356.06;4895506;29;19938;-89
2022/04/10 19:00:59;;;;;;;;;;;;;;;6.52;49.47;98362.50;4886720;29;19979;-87
2022/04/10 19:03:27;;;;;;;;;;;;;;;6.61;48.98;98362.78;4902359;29;19935;-90
2022/04/10 19:05:59;;;;;;;;;;;;;;;6.49;49.61;98363.84;4889426;29;19932;-88
2022/04/10 19:08:28;;;;;;;;;;;;;;;6.51;49.63;98364.41;4884206;29;19942;-89
2022/04/10 19:10:58;;;;;;;;;;;;;;;6.48;49.46;98358.72;4867390;29;19927;-87
2022/04/10 19:13:27;;;;;;;;;;;;;;;6.66;49.51;98366.25;4897745;29;19928;-88
2022/04/10 19:15:55;;;;;;;;;;;;;;;6.43;50.09;98372.25;4902304;29;19934;-88
2022/04/10 19:18:24;;;;;;;;;;;;;;;6.44;50.41;98373.84;4898445;29;19927;-89
2022/04/10 19:20:53;;;;;;;;;;;;;;;6.41;50.32;98379.81;4890670;29;20390;-89
2022/04/10 19:23:22;;;;;;;;;;;;;;;6.26;50.72;98378.75;4895592;29;20026;-88
2022/04/10 19:25:51;;;;;;;;;;;;;;;6.43;50.05;98381.16;4862716;29;19928;-85
2022/04/10 19:28:27;;;;;;;;;;;;;;;6.33;50.34;98372.25;4888054;29;19927;-87
2022/04/10 19:30:56;;;;;;;;;;;;;;;6.40;50.34;98378.19;4873722;29;19977;-88
2022/04/10 19:33:50;;;;;;;;;;;;;;;6.07;50.70;98374.16;4868295;29;19934;-87
2022/04/10 19:36:21;;;;;;;;;;;;;;;6.05;51.08;98379.84;4870963;29;19956;-86
2022/04/10 19:38:49;;;;;;;;;;;;;;;6.10;51.45;98377.13;4865250;29;20014;-87
2022/04/10 19:41:17;;;;;;;;;;;;;;;6.10;52.06;98387.94;4898003;29;20414;-87
2022/04/10 19:43:47;;;;;;;;;;;;;;;6.21;51.43;98378.75;4892170;29;19932;-88
2022/04/10 19:46:20;;;;;;;;;;;;;;;6.35;51.24;98387.09;4896990;29;20010;-88
2022/04/10 19:48:48;;;;;;;;;;;;;;;6.16;51.30;98386.84;4869770;29;19931;-88
2022/04/10 19:51:15;;;;;;;;;;;;;;;6.15;50.88;98382.53;4866136;29;19928;-87
2022/04/10 19:53:44;;;;;;;;;;;;;;;6.25;51.05;98385.22;4891988;29;19934;-88
2022/04/10 19:56:12;;;;;;;;;;;;;;;6.25;51.14;98382.53;4876304;29;19935;-87
2022/04/10 19:58:43;;;;;;;;;;;;;;;6.21;51.35;98394.13;4866506;29;19934;-87
2022/04/10 20:01:13;;;;;;;;;;;;;;;6.27;50.67;98385.75;4865474;29;19932;-88
2022/04/10 20:03:42;;;;;;;;;;;;;;;6.16;51.55;98394.94;4890633;29;19981;-89
2022/04/10 20:06:16;;;;;;;;;;;;;;;6.17;51.33;98396.53;4912893;29;19927;-87
2022/04/10 20:08:44;;;;;;;;;;;;;;;6.19;51.23;98391.72;4865976;29;20357;-90
2022/04/10 20:11:13;;;;;;;;;;;;;;;6.30;51.16;98396.00;4899083;29;19927;-90
2022/04/10 20:13:41;;;;;;;;;;;;;;;6.23;51.18;98398.19;4893415;29;19927;-89
2022/04/10 20:16:15;;;;;;;;;;;;;;;6.20;51.55;98400.59;4888356;29;20371;-90
2022/04/10 20:18:43;;;;;;;;;;;;;;;6.10;51.61;98400.59;4885354;29;19935;-90
2022/04/10 20:21:11;;;;;;;;;;;;;;;6.02;52.14;98400.06;4900062;29;19928;-90
2022/04/10 20:23:39;;;;;;;;;;;;;;;6.15;51.60;98404.13;4868004;29;20402;-89
2022/04/10 20:26:13;;;;;;;;;;;;;;;5.96;52.32;98403.81;4885332;29;19935;-89
2022/04/10 20:28:43;;;;;;;;;;;;;;;5.95;51.78;98399.53;4889615;29;19930;-89
2022/04/10 20:31:12;;;;;;;;;;;;;;;5.99;52.00;98399.78;4864632;29;19956;-90
2022/04/10 20:33:42;;;;;;;;;;;;;;;5.98;52.73;98393.59;4866108;29;19928;-89
2022/04/10 20:36:13;;;;;;;;;;;;;;;5.87;52.56;98391.13;4869417;29;20042;-90
2022/04/10 20:38:42;;;;;;;;;;;;;;;5.70;52.51;98397.59;4880850;29;19928;-88
2022/04/10 20:41:12;;;;;;;;;;;;;;;5.55;52.60;98386.78;4899010;29;20018;-90
2022/04/10 20:43:40;;;;;;;;;;;;;;;5.64;52.28;98395.13;4884265;29;19954;-89
2022/04/10 20:46:12;;;;;;;;;;;;;;;5.84;52.55;98389.78;4884590;29;20140;-89
2022/04/10 20:48:45;;;;;;;;;;;;;;;5.66;53.15;98390.31;4883993;29;19927;-90
2022/04/10 20:51:13;;;;;;;;;;;;;;;5.49;53.21;98394.06;4885004;29;19931;-89
2022/04/10 20:53:43;;;;;;;;;;;;;;;5.56;53.09;98401.88;4893382;29;19995;-89
2022/04/10 20:56:12;;;;;;;;;;;;;;;5.89;52.65;98397.88;4909011;29;20383;-90
2022/04/10 20:58:41;;;;;;;;;;;;;;;5.98;52.19;98398.19;4868355;29;20018;-89
2022/04/10 21:01:12;;;;;;;;;;;;;;;5.88;53.29;98400.84;4865868;29;19975;-90
2022/04/10 21:03:41;;;;;;;;;;;;;;;5.68;53.82;98398.94;4864968;29;20018;-88
2022/04/10 21:06:13;;;;;;;;;;;;;;;5.69;54.18;98403.22;4869236;29;19934;-89
2022/04/10 21:08:41;;;;;;;;;;;;;;;5.63;54.20;98407.81;4888893;29;19927;-88
2022/04/10 21:11:15;;;;;;;;;;;;;;;5.66;54.62;98404.59;4899445;29;20342;-88
2022/04/10 21:13:44;;;;;;;;;;;;;;;5.59;54.59;98411.31;4893759;29;19927;-88
2022/04/10 21:16:12;;;;;;;;;;;;;;;4.96;56.24;98403.31;4876148;29;19927;-86
2022/04/10 21:18:40;;;;;;;;;;;;;;;4.92;56.11;98410.28;4894929;29;19970;-87
2022/04/10 21:21:11;;;;;;;;;;;;;;;5.03;55.82;98411.94;4883688;29;19932;-89
2022/04/10 21:23:40;;;;;;;;;;;;;;;4.81;56.52;98416.69;4887069;29;19932;-88
2022/04/10 21:26:12;;;;;;;;;;;;;;;4.82;56.25;98416.41;4868826;29;19931;-89
2022/04/10 21:28:40;;;;;;;;;;;;;;;4.60;57.29;98416.56;4869501;29;19995;-89
2022/04/10 21:31:11;;;;;;;;;;;;;;;4.64;56.96;98417.66;4874022;29;19971;-87
2022/04/10 21:33:40;;;;;;;;;;;;;;;4.40;57.53;98425.31;4886894;29;19927;-87
2022/04/10 21:36:15;;;;;;;;;;;;;;;4.54;57.25;98420.31;4884940;29;20018;-89
2022/04/10 21:38:44;;;;;;;;;;;;;;;4.29;58.44;98425.50;4868594;29;19953;-89
2022/04/10 21:41:12;;;;;;;;;;;;;;;4.31;57.55;98421.47;4869226;29;19974;-87
2022/04/10 21:43:40;;;;;;;;;;;;;;;4.36;58.04;98429.56;4901542;29;20026;-88
2022/04/10 21:46:12;;;;;;;;;;;;;;;4.53;57.51;98416.00;4885327;29;19956;-89
2022/04/10 21:48:39;;;;;;;;;;;;;;;4.60;57.34;98421.94;4868477;29;19935;-88
2022/04/10 21:51:14;;;;;;;;;;;;;;;4.41;57.69;98429.59;4869795;29;19963;-88
2022/04/10 21:53:43;;;;;;;;;;;;;;;4.04;58.95;98420.72;4868582;29;19936;-88
2022/04/10 21:56:11;;;;;;;;;;;;;;;4.46;57.73;98421.56;4884787;29;20003;-89
2022/04/10 21:58:39;;;;;;;;;;;;;;;4.59;57.72;98414.94;4868261;29;20023;-88
2022/04/10 22:01:07;;;;;;;;;;;;;;;4.51;57.59;98418.13;4915545;29;19928;-88